Time;durP1;ratioP1;P1;durP2;ratioP2;P2;SDS_P1;SDS_P2;PMS_P1;PMS_P2;Temp;Humidity;BMP_temperature;BMP_pressure;BME280_temperature;BME280_humidity;BME280_pressure;Samples;Min_cycle;Max_cycle;Signal;HPM_P1;HPM_P2
2022/06/20 00:00:21;;;;;;;12.57;6.15;;;20.30;99.90;;;;;;5074142;28;20506;-72
2022/06/20 00:02:50;;;;;;;13.73;5.85;;;20.30;99.90;;;;;;5073898;28;20142;-71
2022/06/20 00:05:23;;;;;;;16.02;6.10;;;20.30;99.90;;;;;;5073793;28;20086;-70
2022/06/20 00:07:51;;;;;;;12.68;6.22;;;20.30;99.90;;;;;;5074029;28;20031;-70
2022/06/20 00:10:22;;;;;;;12.45;6.38;;;20.20;99.90;;;;;;5073806;28;20021;-72
2022/06/20 00:12:49;;;;;;;13.20;6.28;;;20.00;99.90;;;;;;5073781;28;20017;-71
2022/06/20 00:15:41;;;;;;;12.18;6.50;;;19.90;99.90;;;;;;5073648;28;20032;-71
2022/06/20 00:18:07;;;;;;;11.57;6.75;;;19.90;99.90;;;;;;5069918;28;20382;-72
2022/06/20 00:20:33;;;;;;;14.27;6.63;;;20.00;99.90;;;;;;5073692;28;20055;-70
2022/06/20 00:22:59;;;;;;;11.18;6.20;;;19.90;99.90;;;;;;5073875;28;20060;-71
2022/06/20 00:25:25;;;;;;;16.40;7.72;;;19.90;99.90;;;;;;5073836;28;20028;-71
2022/06/20 00:27:54;;;;;;;17.63;8.07;;;19.80;99.90;;;;;;5073606;28;20099;-70
2022/06/20 00:30:20;;;;;;;24.08;7.82;;;19.70;99.90;;;;;;5073393;28;20020;-71
2022/06/20 00:32:46;;;;;;;17.00;7.20;;;19.60;99.90;;;;;;5055715;28;20033;-71
2022/06/20 00:35:13;;;;;;;12.73;6.07;;;19.50;99.90;;;;;;5073355;28;20044;-72
2022/06/20 00:37:39;;;;;;;15.95;7.30;;;19.40;99.90;;;;;;5073182;28;20099;-71
2022/06/20 00:40:32;;;;;;;12.88;7.68;;;19.30;99.90;;;;;;5073192;28;20074;-70
2022/06/20 00:42:59;;;;;;;18.95;8.10;;;19.10;99.90;;;;;;5073073;28;20024;-70
2022/06/20 00:45:27;;;;;;;22.55;7.97;;;19.00;99.90;;;;;;5073204;28;20090;-71
2022/06/20 00:47:56;;;;;;;19.02;8.73;;;;;;;;;;5073262;28;20012;-69
2022/06/20 00:50:28;;;;;;;12.70;6.55;;;19.00;99.90;;;;;;5072789;28;20052;-67
2022/06/20 00:53:12;;;;;;;13.57;6.90;;;19.00;99.90;;;;;;5073466;28;20060;-72
2022/06/20 00:55:50;;;;;;;11.80;6.88;;;19.00;99.90;;;;;;5072816;28;20051;-70
2022/06/20 00:58:42;;;;;;;15.63;7.72;;;19.00;99.90;;;;;;5073088;28;20025;-71
2022/06/20 01:01:13;;;;;;;22.40;8.60;;;19.10;99.90;;;;;;5072710;28;20086;-72
2022/06/20 01:03:44;;;;;;;23.92;8.95;;;19.10;99.90;;;;;;5072810;28;20118;-69
2022/06/20 01:06:16;;;;;;;19.95;8.68;;;19.00;99.90;;;;;;5072661;28;20051;-70
2022/06/20 01:08:46;;;;;;;17.70;8.23;;;19.00;99.90;;;;;;5072839;28;20033;-70
2022/06/20 01:11:23;;;;;;;22.10;8.75;;;19.00;99.90;;;;;;5072572;28;20540;-72
2022/06/20 01:13:50;;;;;;;15.95;8.00;;;18.90;99.90;;;;;;5072560;28;20029;-71
2022/06/20 01:16:24;;;;;;;14.73;7.43;;;19.00;99.90;;;;;;5072342;28;20044;-69
2022/06/20 01:18:50;;;;;;;19.00;7.47;;;19.00;99.90;;;;;;5072511;28;20099;-70
2022/06/20 01:21:23;;;;;;;21.88;8.70;;;19.00;99.90;;;;;;5072438;28;20028;-67
2022/06/20 01:24:01;;;;;;;20.70;9.80;;;19.00;99.90;;;;;;5058823;28;20025;-71
2022/06/20 01:26:52;;;;;;;20.90;10.13;;;18.90;99.90;;;;;;5072534;28;20056;-71
2022/06/20 01:29:18;;;;;;;18.75;10.02;;;19.00;99.90;;;;;;5072426;28;20029;-69
2022/06/20 01:31:48;;;;;;;17.45;8.85;;;19.10;99.90;;;;;;5072079;28;20100;-71
2022/06/20 01:34:17;;;;;;;23.80;9.32;;;19.10;99.90;;;;;;5072107;28;20356;-72
2022/06/20 01:39:35;;;;;;;16.45;9.35;;;19.10;99.90;;;;;;5072358;28;20028;-72
2022/06/20 01:42:19;;;;;;;17.88;8.68;;;19.00;99.90;;;;;;5072347;28;20052;-70
2022/06/20 01:44:50;;;;;;;21.75;8.95;;;19.00;99.90;;;;;;5072097;28;20522;-71
2022/06/20 01:47:16;;;;;;;18.30;8.23;;;19.00;99.90;;;;;;5072089;28;20462;-72
2022/06/20 01:49:45;;;;;;;17.08;8.20;;;19.00;99.90;;;;;;5071492;28;20045;-69
2022/06/20 01:52:26;;;;;;;23.15;9.00;;;19.00;99.90;;;;;;5071445;28;20142;-71
2022/06/20 01:55:00;;;;;;;15.25;7.97;;;18.90;99.90;;;;;;5071888;28;20410;-71
2022/06/20 01:57:28;;;;;;;22.55;9.30;;;18.90;99.90;;;;;;5071885;28;20025;-72
2022/06/20 02:00:00;;;;;;;13.15;7.55;;;18.90;99.90;;;;;;5071869;28;20103;-68
2022/06/20 02:02:31;;;;;;;21.15;9.18;;;18.80;99.90;;;;;;5072191;28;20158;-71
2022/06/20 02:04:57;;;;;;;15.07;8.00;;;18.80;99.90;;;;;;5072112;28;20020;-67
2022/06/20 02:07:24;;;;;;;9.70;6.28;;;18.70;99.90;;;;;;5071670;28;20070;-71
2022/06/20 02:09:50;;;;;;;13.07;6.53;;;18.60;99.90;;;;;;5071858;28;20029;-71
2022/06/20 02:12:18;;;;;;;12.27;6.07;;;18.50;99.90;;;;;;5071587;28;20028;-72
2022/06/20 02:14:55;;;;;;;10.82;6.57;;;18.50;99.90;;;;;;5071475;28;20020;-71
2022/06/20 02:17:37;;;;;;;16.17;6.82;;;18.40;99.90;;;;;;5071663;28;20459;-72
2022/06/20 02:20:07;;;;;;;12.35;7.53;;;18.30;99.90;;;;;;5071129;28;20016;-68
2022/06/20 02:22:35;;;;;;;13.05;6.55;;;18.20;99.90;;;;;;5071510;28;20847;-71
2022/06/20 02:25:19;;;;;;;10.02;5.75;;;18.10;99.90;;;;;;5071418;28;20028;-69
2022/06/20 02:27:51;;;;;;;11.25;6.00;;;18.10;99.90;;;;;;5071340;28;20025;-71
2022/06/20 02:30:17;;;;;;;13.00;6.30;;;18.10;99.90;;;;;;5071425;28;20382;-72
2022/06/20 02:32:51;;;;;;;8.52;5.80;;;18.10;99.90;;;;;;5070966;28;20021;-72
2022/06/20 02:35:19;;;;;;;12.02;6.20;;;18.00;99.90;;;;;;5071381;28;20033;-71
2022/06/20 02:37:46;;;;;;;11.10;6.25;;;18.00;99.90;;;;;;5068157;28;20100;-72
2022/06/20 02:40:16;;;;;;;12.02;7.10;;;18.00;99.90;;;;;;5065817;28;20367;-69
2022/06/20 02:43:11;;;;;;;12.68;6.03;;;18.00;99.90;;;;;;5070672;28;20032;-71
2022/06/20 02:45:39;;;;;;;13.25;6.88;;;18.00;99.90;;;;;;5070710;28;20024;-72
2022/06/20 02:48:08;;;;;;;9.55;6.05;;;17.90;99.90;;;;;;5070581;28;20012;-71
2022/06/20 02:50:43;;;;;;;10.57;5.97;;;17.90;99.90;;;;;;5070606;28;20049;-71
2022/06/20 02:53:22;;;;;;;11.18;7.25;;;17.80;99.90;;;;;;5070755;28;20029;-72
2022/06/20 02:55:50;;;;;;;10.38;6.15;;;17.80;99.90;;;;;;5069766;28;20037;-70
2022/06/20 02:58:26;;;;;;;12.43;5.90;;;17.80;99.90;;;;;;5070184;28;20036;-72
2022/06/20 03:00:59;;;;;;;10.90;6.45;;;17.90;99.90;;;;;;5070411;28;20390;-72
2022/06/20 03:03:30;;;;;;;15.45;6.50;;;17.80;99.90;;;;;;5073114;28;20032;-71
2022/06/20 03:05:57;;;;;;;12.63;6.90;;;17.80;99.90;;;;;;5056954;28;20386;-72
2022/06/20 03:08:24;;;;;;;9.57;5.93;;;17.70;99.90;;;;;;5074818;28;20024;-71
2022/06/20 03:10:52;;;;;;;15.85;6.78;;;17.70;99.90;;;;;;5074829;28;20079;-71
2022/06/20 03:13:21;;;;;;;10.07;6.07;;;17.80;99.90;;;;;;5075340;28;20074;-69
2022/06/20 03:15:49;;;;;;;16.30;6.30;;;17.80;99.90;;;;;;5075337;28;20119;-73
2022/06/20 03:18:17;;;;;;;8.50;5.35;;;17.90;99.90;;;;;;5074476;28;20020;-70
2022/06/20 03:20:44;;;;;;;11.77;6.30;;;18.00;99.90;;;;;;5070792;28;20375;-71
2022/06/20 03:23:18;;;;;;;10.50;5.70;;;18.00;99.90;;;;;;5074353;28;20029;-69
2022/06/20 03:25:44;;;;;;;11.98;6.38;;;18.10;99.90;;;;;;5075532;28;20103;-72
2022/06/20 03:28:16;;;;;;;16.38;6.22;;;18.20;99.90;;;;;;5075047;28;20044;-72
2022/06/20 03:30:42;;;;;;;10.52;5.97;;;18.20;99.90;;;;;;5075153;28;20031;-72
2022/06/20 03:33:13;;;;;;;12.55;7.25;;;18.20;99.90;;;;;;5075214;28;20025;-72
2022/06/20 03:35:51;;;;;;;17.75;7.70;;;18.20;99.90;;;;;;5080990;28;20024;-71
2022/06/20 03:38:18;;;;;;;15.82;7.20;;;18.10;99.90;;;;;;5075062;28;20032;-72
2022/06/20 03:40:44;;;;;;;12.07;6.10;;;18.30;99.90;;;;;;5074210;28;20043;-72
2022/06/20 03:43:14;;;;;;;13.20;6.57;;;18.90;99.90;;;;;;5072642;28;20025;-72
2022/06/20 03:45:45;;;;;;;13.30;6.82;;;20.20;99.90;;;;;;5073039;28;20048;-71
2022/06/20 03:48:18;;;;;;;14.30;7.07;;;21.20;99.90;;;;;;5075085;28;20178;-72
2022/06/20 03:51:04;;;;;;;14.90;6.70;;;22.00;99.90;;;;;;5080178;28;20045;-72
2022/06/20 03:53:43;;;;;;;12.35;6.53;;;22.30;99.50;;;;;;5074959;28;20040;-72
2022/06/20 03:56:18;;;;;;;14.80;6.05;;;23.40;97.60;;;;;;5074867;28;20371;-70
2022/06/20 03:58:49;;;;;;;9.25;5.65;;;23.50;94.30;;;;;;5074745;28;20025;-72
2022/06/20 04:01:22;;;;;;;13.57;5.82;;;24.50;93.40;;;;;;5074114;28;20043;-72
2022/06/20 04:03:56;;;;;;;14.52;5.53;;;25.00;91.30;;;;;;5074086;28;20501;-71
2022/06/20 04:06:48;;;;;;;9.95;5.57;;;25.60;87.90;;;;;;5073058;28;20059;-71
2022/06/20 04:12:26;;;;;;;11.82;5.60;;;26.80;81.90;;;;;;5077074;28;20024;-74
2022/06/20 04:15:07;;;;;;;8.82;4.65;;;28.10;89.50;;;;;;5074669;28;20086;-69
2022/06/20 04:20:53;;;;;;;11.25;5.70;;;29.10;74.40;;;;;;5073777;28;20115;-73
2022/06/20 04:23:29;;;;;;;16.83;6.72;;;29.50;74.60;;;;;;5074171;28;20490;-73
2022/06/20 04:26:14;;;;;;;14.88;5.80;;;29.80;83.40;;;;;;5074268;28;20108;-73
2022/06/20 04:28:49;;;;;;;11.38;6.80;;;;;;;;;;5073495;28;20028;-73
2022/06/20 04:31:41;;;;;;;10.45;5.90;;;30.50;70.90;;;;;;5073576;28;20540;-75
2022/06/20 04:34:20;;;;;;;10.93;5.57;;;31.00;70.00;;;;;;5073844;28;20021;-73
2022/06/20 04:36:50;;;;;;;12.32;6.38;;;31.30;77.00;;;;;;5073718;28;20043;-74
2022/06/20 04:39:25;;;;;;;11.13;7.15;;;30.70;68.90;;;;;;5074157;28;20061;-73
2022/06/20 04:42:32;;;;;;;11.73;6.95;;;30.60;70.10;;;;;;5073880;28;20029;-74
2022/06/20 04:45:09;;;;;;;14.20;7.20;;;30.50;69.50;;;;;;4992472;28;20089;-74
2022/06/20 04:47:46;;;;;;;10.70;5.97;;;30.70;69.30;;;;;;4992299;28;20047;-74
2022/06/20 04:50:20;;;;;;;12.10;5.70;;;30.60;69.60;;;;;;4991544;28;20094;-74
2022/06/20 04:52:48;;;;;;;8.45;5.30;;;30.70;71.50;;;;;;4992350;28;20030;-73
2022/06/20 04:55:18;;;;;;;13.30;5.70;;;30.80;68.40;;;;;;4991722;28;20042;-74
2022/06/20 04:57:44;;;;;;;8.35;5.22;;;30.30;68.80;;;;;;4992043;28;20026;-74
2022/06/20 05:00:27;;;;;;;9.52;5.65;;;29.20;69.00;;;;;;4991434;28;20022;-73
2022/06/20 05:02:55;;;;;;;8.27;4.97;;;28.30;70.20;;;;;;4991712;28;20480;-74
2022/06/20 05:05:25;;;;;;;10.90;5.25;;;27.70;72.00;;;;;;4992182;28;20029;-73
2022/06/20 05:07:51;;;;;;;9.10;5.05;;;27.40;72.60;;;;;;4992054;28;20397;-73
2022/06/20 05:10:26;;;;;;;10.40;5.85;;;27.10;73.20;;;;;;4990876;28;20081;-74
2022/06/20 05:13:04;;;;;;;11.93;5.55;;;26.90;73.50;;;;;;4991430;28;20030;-74
2022/06/20 05:15:50;;;;;;;7.75;5.03;;;26.70;74.50;;;;;;4991169;28;20058;-73
2022/06/20 05:18:37;;;;;;;10.55;5.57;;;26.80;75.10;;;;;;4989525;28;20374;-72
2022/06/20 05:21:15;;;;;;;10.43;4.55;;;26.80;75.00;;;;;;5008852;28;20511;-71
2022/06/20 05:23:47;;;;;;;8.95;4.63;;;26.70;75.40;;;;;;5073065;28;20024;-73
2022/06/20 05:26:18;;;;;;;9.15;5.07;;;26.70;74.30;;;;;;5072172;28;20025;-72
2022/06/20 05:28:46;;;;;;;7.60;4.13;;;26.70;75.50;;;;;;5072909;28;20024;-73
2022/06/20 05:31:16;;;;;;;10.45;5.38;;;26.60;74.60;;;;;;5072586;28;20124;-72
2022/06/20 05:34:05;;;;;;;9.02;4.38;;;26.60;73.70;;;;;;5071777;28;20016;-72
2022/06/20 05:36:36;;;;;;;7.70;4.88;;;26.60;74.70;;;;;;5052965;28;20159;-71
2022/06/20 05:39:35;;;;;;;7.53;4.57;;;26.70;75.40;;;;;;5058147;28;20028;-72
2022/06/20 05:42:02;;;;;;;7.97;5.50;;;26.70;74.50;;;;;;5072246;28;20478;-72
2022/06/20 05:44:27;;;;;;;10.13;4.85;;;26.80;75.40;;;;;;5054451;28;20368;-72
2022/06/20 05:46:59;;;;;;;8.50;5.00;;;26.80;75.20;;;;;;5071380;28;20033;-72
2022/06/20 05:49:27;;;;;;;;;;;26.40;77.30;;;;;;5069150;28;20025;-72
2022/06/20 05:51:55;;;;;;;9.02;5.07;;;26.30;76.90;;;;;;5065430;28;19927;-72
2022/06/20 05:54:25;;;;;;;12.05;6.65;;;26.40;78.20;;;;;;5072552;28;20029;-72
2022/06/20 05:56:56;;;;;;;17.95;6.72;;;26.50;78.70;;;;;;5071908;28;20040;-72
2022/06/20 05:59:28;;;;;;;12.63;6.47;;;26.40;79.80;;;;;;5072401;28;20064;-65
2022/06/20 06:02:19;;;;;;;15.95;7.25;;;25.70;79.50;;;;;;5072693;28;20342;-72
2022/06/20 06:05:02;;;;;;;16.15;7.53;;;26.30;83.00;;;;;;4990937;28;20038;-72
2022/06/20 06:07:36;;;;;;;16.30;7.50;;;26.30;84.50;;;;;;4990752;28;20469;-72
2022/06/20 06:10:12;;;;;;;11.45;7.13;;;25.80;85.10;;;;;;4999045;28;20150;-67
2022/06/20 06:12:44;;;;;;;13.27;5.90;;;26.20;86.50;;;;;;4991514;28;20038;-72
2022/06/20 06:15:13;;;;;;;12.25;6.47;;;26.50;84.00;;;;;;4991264;28;20057;-72
2022/06/20 06:17:47;;;;;;;10.73;5.45;;;25.80;83.60;;;;;;4994855;28;20081;-70
2022/06/20 06:20:26;;;;;;;11.75;5.88;;;26.00;83.20;;;;;;4990432;28;20026;-63
2022/06/20 06:22:57;;;;;;;9.80;5.32;;;26.20;83.50;;;;;;4990209;28;20050;-69
2022/06/20 06:25:28;;;;;;;11.38;5.28;;;26.50;83.30;;;;;;4989984;28;20034;-72
2022/06/20 06:28:01;;;;;;;10.80;5.50;;;26.80;82.60;;;;;;4990134;28;20034;-72
2022/06/20 06:30:48;;;;;;;13.43;5.47;;;26.70;82.70;;;;;;4989168;28;20042;-71
2022/06/20 06:33:20;;;;;;;8.35;5.57;;;26.30;81.80;;;;;;4988344;28;20449;-67
2022/06/20 06:35:53;;;;;;;8.77;5.10;;;26.90;82.30;;;;;;4989382;28;20050;-70
2022/06/20 06:38:28;;;;;;;11.77;4.68;;;27.10;81.80;;;;;;4990143;28;20034;-71
2022/06/20 06:40:56;;;;;;;6.90;5.13;;;27.00;82.50;;;;;;5002079;28;20116;-71
2022/06/20 06:43:37;;;;;;;8.10;5.25;;;27.30;81.50;;;;;;5070960;28;20105;-72
2022/06/20 06:46:10;;;;;;;9.23;5.20;;;27.60;81.80;;;;;;5071174;28;20042;-71
2022/06/20 06:49:08;;;;;;;8.07;4.63;;;27.60;79.60;;;;;;5071251;28;20020;-71
2022/06/20 06:51:51;;;;;;;9.10;5.40;;;27.50;81.20;;;;;;4989516;28;20101;-71
2022/06/20 06:54:25;;;;;;;9.02;5.00;;;27.50;81.00;;;;;;4982043;28;20385;-70
2022/06/20 06:56:59;;;;;;;7.35;4.65;;;27.20;81.40;;;;;;4992279;28;20053;-70
2022/06/20 06:59:38;;;;;;;7.00;5.03;;;27.60;82.20;;;;;;4995608;28;20023;-71
2022/06/20 07:02:12;;;;;;;12.93;5.25;;;27.40;80.30;;;;;;4990219;28;20572;-72
2022/06/20 07:04:48;;;;;;;8.20;4.82;;;27.30;82.60;;;;;;4989329;28;20065;-71
2022/06/20 07:07:19;;;;;;;9.18;4.50;;;27.30;80.80;;;;;;4989269;28;20082;-71
2022/06/20 07:09:49;;;;;;;14.13;5.57;;;27.40;82.00;;;;;;4973199;28;20408;-71
2022/06/20 07:12:19;;;;;;;11.15;5.15;;;27.70;81.90;;;;;;4990003;28;20567;-72
2022/06/20 07:15:01;;;;;;;18.48;4.82;;;27.60;80.00;;;;;;4989350;28;20062;-72
2022/06/20 07:17:42;;;;;;;13.63;4.95;;;28.30;81.00;;;;;;4989465;28;20038;-72
2022/06/20 07:20:09;;;;;;;18.60;5.67;;;28.70;78.80;;;;;;4988199;28;20217;-71
2022/06/20 07:22:40;;;;;;;10.02;5.03;;;29.00;77.80;;;;;;4989248;28;20558;-71
2022/06/20 07:25:15;;;;;;;8.05;5.13;;;29.10;78.00;;;;;;4989452;28;20093;-72
2022/06/20 07:27:48;;;;;;;9.48;4.78;;;28.70;78.00;;;;;;5006189;28;20072;-71
2022/06/20 07:30:19;;;;;;;8.48;4.72;;;29.00;78.60;;;;;;5070098;28;20537;-70
2022/06/20 07:32:54;;;;;;;10.30;5.38;;;29.20;78.40;;;;;;5071090;28;20028;-72
2022/06/20 07:35:48;;;;;;;9.43;5.18;;;29.40;78.00;;;;;;5070391;28;20390;-72
2022/06/20 07:38:30;;;;;;;8.70;5.25;;;29.40;75.80;;;;;;5020519;28;20103;-71
2022/06/20 07:40:59;;;;;;;;;;;29.10;76.20;;;;;;5009808;28;20069;-72
2022/06/20 07:43:41;;;;;;;20.60;5.65;;;29.30;76.90;;;;;;5008945;28;19909;-71
2022/06/20 07:46:13;;;;;;;11.02;4.68;;;28.80;75.00;;;;;;5019124;28;20037;-69
2022/06/20 07:48:42;;;;;;;10.23;5.13;;;29.20;75.60;;;;;;5009616;28;20046;-72
2022/06/20 07:51:29;;;;;;;9.93;5.13;;;29.60;76.00;;;;;;5011806;28;20453;-72
2022/06/20 07:54:10;;;;;;;10.15;5.07;;;29.80;76.00;;;;;;5012356;28;20042;-72
2022/06/20 07:56:43;;;;;;;11.75;4.70;;;29.90;74.10;;;;;;5013692;28;20515;-73
2022/06/20 07:59:14;;;;;;;7.38;4.65;;;29.70;74.60;;;;;;5012298;28;20504;-70
2022/06/20 08:02:07;;;;;;;8.77;4.15;;;30.20;73.60;;;;;;5011572;28;20504;-70
2022/06/20 08:04:36;;;;;;;12.07;6.05;;;30.70;75.90;;;;;;5012389;28;20076;-73
2022/06/20 08:07:12;;;;;;;7.93;4.95;;;30.90;72.20;;;;;;5011945;28;20032;-73
2022/06/20 08:10:16;;;;;;;10.13;5.72;;;30.80;71.70;;;;;;5004959;28;20042;-71
2022/06/20 08:13:17;;;;;;;8.50;4.65;;;31.30;71.80;;;;;;4969218;28;20039;-72
2022/06/20 08:15:50;;;;;;;6.88;4.60;;;31.00;71.80;;;;;;4979174;28;20088;-63
2022/06/20 08:18:17;;;;;;;9.50;5.07;;;31.00;68.90;;;;;;5011711;28;20504;-72
2022/06/20 08:20:53;;;;;;;8.60;4.75;;;31.30;71.90;;;;;;5000092;28;20428;-71
2022/06/20 08:23:28;;;;;;;7.93;4.50;;;31.30;69.60;;;;;;5005282;28;20096;-72
2022/06/20 08:26:01;;;;;;;8.48;4.45;;;31.60;70.00;;;;;;5001754;28;20472;-72
2022/06/20 08:28:40;;;;;;;7.15;4.10;;;31.60;70.80;;;;;;5012049;28;20484;-73
2022/06/20 08:31:23;;;;;;;7.50;4.75;;;31.80;68.80;;;;;;5008680;28;20490;-73
2022/06/20 08:34:02;;;;;;;6.25;4.32;;;32.10;72.80;;;;;;5008304;28;20033;-74
2022/06/20 08:36:30;;;;;;;8.55;4.50;;;32.00;67.60;;;;;;5011074;28;20136;-73
2022/06/20 08:39:20;;;;;;;8.80;4.35;;;31.70;67.90;;;;;;5010363;28;20044;-74
2022/06/20 08:42:13;;;;;;;10.35;4.13;;;31.80;70.00;;;;;;4998355;28;20504;-75
2022/06/20 08:44:57;;;;;;;8.40;4.63;;;32.10;70.40;;;;;;5004782;28;20053;-73
2022/06/20 08:48:08;;;;;;;6.45;4.20;;;32.30;67.30;;;;;;4997648;28;20069;-74
2022/06/20 08:50:52;;;;;;;7.20;3.93;;;32.20;65.10;;;;;;5069255;28;20055;-74
2022/06/20 08:53:48;;;;;;;7.30;4.28;;;32.20;67.40;;;;;;5073543;28;20288;-74
2022/06/20 08:56:32;;;;;;;9.13;4.88;;;32.30;66.50;;;;;;5072961;28;20085;-71
2022/06/20 08:59:32;;;;;;;11.55;4.72;;;32.20;66.90;;;;;;5073202;28;20028;-66
2022/06/20 09:02:21;;;;;;;10.07;4.63;;;32.50;67.80;;;;;;5073521;28;20024;-75
2022/06/20 09:04:59;;;;;;;8.15;4.40;;;32.00;67.80;;;;;;5009851;28;20970;-74
2022/06/20 09:07:57;;;;;;;13.88;5.05;;;32.40;68.40;;;;;;5009906;28;20038;-74
2022/06/20 09:10:47;;;;;;;8.48;4.35;;;32.50;67.40;;;;;;4989516;28;20038;-73
2022/06/20 09:13:43;;;;;;;5.53;4.00;;;32.60;67.90;;;;;;5011186;28;20066;-74
2022/06/20 09:16:22;;;;;;;6.43;4.22;;;32.90;68.00;;;;;;5010834;28;20049;-75
2022/06/20 09:19:22;;;;;;;9.60;4.25;;;32.80;66.40;;;;;;5011051;28;20028;-72
2022/06/20 09:22:15;;;;;;;6.47;3.95;;;32.80;64.30;;;;;;5010837;28;20041;-74
2022/06/20 09:25:13;;;;;;;8.45;4.18;;;32.50;63.50;;;;;;5010712;28;20056;-73
2022/06/20 09:28:00;;;;;;;7.68;3.67;;;32.00;64.10;;;;;;5011116;28;20125;-74
2022/06/20 09:30:44;;;;;;;12.65;4.45;;;31.80;64.30;;;;;;5010378;28;20036;-74
2022/06/20 09:33:33;;;;;;;11.60;4.43;;;31.60;66.50;;;;;;5011475;28;20026;-74
2022/06/20 09:36:20;;;;;;;5.60;4.10;;;31.50;66.60;;;;;;5010371;28;20041;-70
2022/06/20 09:39:06;;;;;;;8.40;4.15;;;31.10;66.50;;;;;;5010002;28;20026;-72
2022/06/20 09:41:43;;;;;;;8.85;4.03;;;31.20;66.80;;;;;;5024898;28;20053;-75
2022/06/20 09:44:28;;;;;;;8.93;4.10;;;31.70;66.90;;;;;;5071833;28;20055;-74
2022/06/20 09:47:09;;;;;;;7.70;3.50;;;31.80;64.30;;;;;;5072079;28;20036;-75
2022/06/20 09:49:59;;;;;;;5.27;3.13;;;31.50;63.30;;;;;;5071062;28;20031;-75
2022/06/20 09:52:36;;;;;;;6.07;3.40;;;31.70;63.50;;;;;;5077839;28;20407;-74
2022/06/20 09:55:31;;;;;;;6.65;3.50;;;31.80;62.90;;;;;;5071103;28;20477;-74
2022/06/20 09:58:18;;;;;;;6.55;3.47;;;32.00;65.40;;;;;;5071682;28;20445;-75
2022/06/20 10:01:10;;;;;;;6.32;3.80;;;32.30;64.20;;;;;;5071756;28;20039;-65
2022/06/20 10:03:50;;;;;;;;;;;32.30;63.30;;;;;;4997347;28;20038;-70
2022/06/20 10:06:34;;;;;;;4.88;3.33;;;32.00;63.10;;;;;;5009237;28;19916;-66
2022/06/20 10:09:28;;;;;;;11.25;4.28;;;31.60;61.40;;;;;;5005538;28;20162;-74
2022/06/20 10:12:20;;;;;;;5.88;3.97;;;32.00;63.10;;;;;;5008960;28;20022;-74
2022/06/20 10:14:59;;;;;;;9.85;4.32;;;31.90;62.80;;;;;;5008211;28;20065;-74
2022/06/20 10:17:37;;;;;;;4.28;3.22;;;32.10;63.20;;;;;;5001759;28;20042;-74
2022/06/20 10:20:14;;;;;;;4.22;2.65;;;32.30;59.90;;;;;;4998744;28;20033;-73
2022/06/20 10:22:47;;;;;;;5.25;2.30;;;32.00;57.10;;;;;;5007787;28;20396;-71
2022/06/20 10:25:40;;;;;;;4.18;2.85;;;32.20;56.90;;;;;;4997753;28;20042;-75
2022/06/20 10:28:59;;;;;;;5.45;3.15;;;32.30;58.30;;;;;;5000108;28;20750;-75
2022/06/20 10:31:30;;;;;;;4.47;3.03;;;32.30;59.60;;;;;;4945171;29;20031;-74
2022/06/20 10:33:59;;;;;;;;;;;32.30;58.30;;;;;;4951298;28;20039;-74
2022/06/20 10:36:37;;;;;;;4.45;3.10;;;31.90;57.60;;;;;;4951051;29;19953;-75
2022/06/20 10:39:30;;;;;;;5.55;3.10;;;31.90;59.50;;;;;;4951280;29;20212;-74
2022/06/20 10:42:07;;;;;;;8.60;3.65;;;32.20;60.30;;;;;;5003152;28;20034;-74
2022/06/20 10:44:46;;;;;;;6.25;3.67;;;32.20;60.20;;;;;;5008481;28;20152;-74
2022/06/20 10:47:30;;;;;;;6.43;3.10;;;32.40;60.20;;;;;;5014743;28;20030;-73
2022/06/20 10:50:12;;;;;;;5.90;3.63;;;32.50;60.30;;;;;;5021409;28;20046;-72
2022/06/20 10:53:10;;;;;;;5.63;3.80;;;32.60;59.30;;;;;;5003757;28;20045;-73
2022/06/20 10:55:58;;;;;;;6.20;3.40;;;32.60;59.00;;;;;;4970628;28;20050;-74
2022/06/20 10:59:03;;;;;;;4.40;3.55;;;32.30;59.10;;;;;;4968924;28;20528;-74
2022/06/20 11:01:39;;;;;;;8.57;3.30;;;32.30;58.60;;;;;;4975838;28;20034;-75
2022/06/20 11:04:11;;;;;;;11.40;3.72;;;32.80;59.60;;;;;;5021855;28;20033;-75
2022/06/20 11:07:04;;;;;;;9.88;4.47;;;33.10;62.00;;;;;;5010658;28;20033;-75
2022/06/20 11:09:51;;;;;;;7.65;3.60;;;33.10;59.80;;;;;;5010560;28;20073;-74
2022/06/20 11:12:40;;;;;;;6.75;3.35;;;33.10;58.20;;;;;;5007622;28;20046;-75
2022/06/20 11:15:12;;;;;;;6.18;3.63;;;32.70;57.80;;;;;;5008084;28;20566;-74
2022/06/20 11:17:59;;;;;;;8.15;3.65;;;32.80;58.50;;;;;;5007949;28;20026;-65
2022/06/20 11:20:28;;;;;;;7.00;3.67;;;33.00;58.30;;;;;;4990619;28;20141;-74
2022/06/20 11:23:17;;;;;;;8.95;4.32;;;32.80;57.50;;;;;;5008274;28;20045;-74
2022/06/20 11:25:54;;;;;;;7.47;4.03;;;32.90;58.40;;;;;;5012121;28;20038;-76
2022/06/20 11:28:39;;;;;;;8.30;3.95;;;32.90;57.50;;;;;;5013472;28;20048;-76
2022/06/20 11:31:25;;;;;;;9.63;4.28;;;32.70;57.50;;;;;;5016413;28;20065;-75
2022/06/20 11:34:14;;;;;;;12.07;4.13;;;32.60;57.70;;;;;;5052818;28;20178;-74
2022/06/20 11:37:01;;;;;;;7.50;3.58;;;32.50;57.50;;;;;;5050700;28;20045;-75
2022/06/20 11:39:55;;;;;;;9.57;3.45;;;32.90;59.60;;;;;;5052882;28;20087;-75
2022/06/20 11:42:30;;;;;;;8.02;3.28;;;32.80;56.90;;;;;;5053147;28;20033;-76
2022/06/20 11:45:16;;;;;;;3.70;2.25;;;33.10;55.90;;;;;;5052983;28;20045;-74
2022/06/20 11:47:51;;;;;;;5.35;2.65;;;33.30;53.10;;;;;;5053167;28;20392;-68
2022/06/20 11:50:41;;;;;;;5.13;2.05;;;33.40;53.30;;;;;;5040653;28;20081;-76
2022/06/20 11:53:20;;;;;;;6.80;2.80;;;34.30;77.10;;;;;;5031218;28;20022;-69
2022/06/20 11:56:15;;;;;;;4.70;2.33;;;33.60;51.90;;;;;;5031065;28;20030;-75
2022/06/20 11:59:06;;;;;;;4.30;2.10;;;33.60;51.90;;;;;;5036397;28;20041;-74
2022/06/20 12:02:05;;;;;;;4.13;2.22;;;33.80;54.20;;;;;;5031865;28;20080;-71
2022/06/20 12:04:53;;;;;;;3.13;2.13;;;33.80;51.30;;;;;;4989807;28;20110;-75
2022/06/20 12:07:50;;;;;;;9.57;2.83;;;33.70;49.30;;;;;;4992531;28;20030;-75
2022/06/20 12:10:21;;;;;;;3.67;2.95;;;33.40;50.00;;;;;;4968753;28;20482;-72
2022/06/20 12:12:58;;;;;;;3.85;2.20;;;33.60;53.50;;;;;;4973294;28;20034;-75
2022/06/20 12:16:02;;;;;;;7.35;2.35;;;33.60;51.00;;;;;;4972634;28;20473;-74
2022/06/20 12:24:24;;;;;;;3.15;2.15;;;33.70;50.10;;;;;;4991414;28;20064;-75
2022/06/20 12:26:52;;;;;;;5.38;2.58;;;33.50;49.10;;;;;;4993776;28;20031;-74
2022/06/20 12:29:21;;;;;;;6.20;2.88;;;33.40;51.00;;;;;;4994568;28;20070;-70
2022/06/20 12:31:49;;;;;;;4.60;2.47;;;;;;;;;;4996679;28;20044;-75
2022/06/20 12:34:44;;;;;;;6.85;2.67;;;33.30;49.90;;;;;;4990715;28;20041;-74
2022/06/20 12:37:17;;;;;;;3.65;2.30;;;33.50;52.70;;;;;;4988999;28;20574;-73
2022/06/20 12:40:04;;;;;;;9.30;2.75;;;33.40;51.80;;;;;;4999921;28;20590;-69
2022/06/20 12:42:41;;;;;;;5.95;2.90;;;33.50;51.70;;;;;;5021702;28;20511;-72
2022/06/20 12:45:46;;;;;;;4.78;2.70;;;33.60;54.60;;;;;;5032822;28;20117;-71
2022/06/20 12:48:33;;;;;;;4.97;2.53;;;33.80;53.50;;;;;;5020198;28;20447;-72
2022/06/20 12:51:23;;;;;;;3.65;2.22;;;33.90;53.20;;;;;;5012398;28;20040;-72
2022/06/20 12:53:52;;;;;;;8.63;2.53;;;33.70;49.80;;;;;;5026679;28;20022;-73
2022/06/20 12:56:43;;;;;;;4.60;2.35;;;33.20;49.60;;;;;;5056144;28;20041;-72
2022/06/20 12:59:27;;;;;;;;;;;33.50;51.10;;;;;;5065532;28;20047;-72
2022/06/20 13:02:18;;;;;;;5.03;2.72;;;33.50;53.40;;;;;;5037397;28;20304;-71
2022/06/20 13:05:09;;;;;;;3.63;2.55;;;33.60;53.50;;;;;;5037894;28;20037;-73
2022/06/20 13:07:41;;;;;;;3.30;2.25;;;33.80;52.80;;;;;;5044876;28;20025;-73
2022/06/20 13:10:38;;;;;;;4.55;2.38;;;33.80;52.70;;;;;;5044318;28;20471;-73
2022/06/20 13:13:25;;;;;;;5.70;2.72;;;33.80;51.80;;;;;;5033874;28;20017;-74
2022/06/20 13:16:09;;;;;;;4.78;2.45;;;33.90;52.80;;;;;;5038757;28;20076;-72
2022/06/20 13:18:59;;;;;;;3.53;2.30;;;33.90;53.00;;;;;;5042318;28;20036;-74
2022/06/20 13:21:28;;;;;;;5.75;2.42;;;33.80;50.10;;;;;;5038447;28;20064;-69
2022/06/20 13:24:24;;;;;;;4.43;2.78;;;33.80;50.40;;;;;;5046002;28;20491;-71
2022/06/20 13:27:00;;;;;;;4.20;2.08;;;33.80;52.80;;;;;;5033159;28;20030;-72
2022/06/20 13:29:32;;;;;;;5.45;2.70;;;33.90;52.40;;;;;;5033118;28;20529;-70
2022/06/20 13:32:40;;;;;;;3.35;2.30;;;33.90;52.10;;;;;;5032884;28;20029;-72
2022/06/20 13:35:15;;;;;;;4.75;2.17;;;33.80;54.00;;;;;;4971679;28;20118;-72
2022/06/20 13:37:58;;;;;;;5.38;2.28;;;33.60;52.10;;;;;;4981647;28;20050;-72
2022/06/20 13:40:38;;;;;;;5.32;2.70;;;33.50;51.20;;;;;;4990960;28;20123;-72
2022/06/20 13:43:22;;;;;;;5.60;2.40;;;33.60;54.30;;;;;;4990679;28;20035;-71
2022/06/20 13:46:08;;;;;;;3.65;2.83;;;33.70;51.30;;;;;;4990228;28;20030;-73
2022/06/20 13:48:54;;;;;;;3.35;2.50;;;33.60;52.40;;;;;;4990886;28;20038;-73
2022/06/20 13:51:43;;;;;;;3.40;2.22;;;33.70;51.40;;;;;;5013254;28;20049;-69
2022/06/20 13:54:24;;;;;;;5.05;2.20;;;33.80;51.80;;;;;;5040285;28;20263;-72